sensor_id;sensor_type;location;lat;lon;timestamp;pressure;altitude;pressure_sealevel;temperature;humidity
20043;BME280;10182;52.896;6.496;2023-03-13T00:02:41;100014.25;;;7.69;100.00
20043;BME280;10182;52.896;6.496;2023-03-13T00:07:46;100005.50;;;7.68;100.00
20043;BME280;10182;52.896;6.496;2023-03-13T00:12:49;99994.06;;;7.68;100.00
20043;BME280;10182;52.896;6.496;2023-03-13T00:17:53;99990.94;;;7.59;100.00
20043;BME280;10182;52.896;6.496;2023-03-13T00:22:56;99974.28;;;7.59;100.00
20043;BME280;10182;52.896;6.496;2023-03-13T00:27:58;99961.38;;;7.53;100.00
20043;BME280;10182;52.896;6.496;2023-03-13T00:33:00;99948.13;;;7.54;100.00
20043;BME280;10182;52.896;6.496;2023-03-13T00:38:04;99936.88;;;7.51;100.00
20043;BME280;10182;52.896;6.496;2023-03-13T00:43:06;99911.16;;;7.56;100.00
20043;BME280;10182;52.896;6.496;2023-03-13T00:48:08;99900.59;;;7.56;100.00
20043;BME280;10182;52.896;6.496;2023-03-13T00:53:11;99874.41;;;7.53;100.00
20043;BME280;10182;52.896;6.496;2023-03-13T00:58:16;99866.41;;;7.54;100.00
20043;BME280;10182;52.896;6.496;2023-03-13T01:03:24;99853.16;;;7.56;100.00
20043;BME280;10182;52.896;6.496;2023-03-13T01:08:28;99832.41;;;7.50;100.00
20043;BME280;10182;52.896;6.496;2023-03-13T01:13:30;99829.69;;;7.51;100.00
20043;BME280;10182;52.896;6.496;2023-03-13T01:18:34;99826.28;;;7.49;100.00
20043;BME280;10182;52.896;6.496;2023-03-13T01:23:39;99814.72;;;7.52;100.00
20043;BME280;10182;52.896;6.496;2023-03-13T01:28:41;99793.50;;;7.55;100.00
20043;BME280;10182;52.896;6.496;2023-03-13T01:33:43;99788.88;;;7.60;100.00
20043;BME280;10182;52.896;6.496;2023-03-13T01:51:21;99731.34;;;7.68;100.00
20043;BME280;10182;52.896;6.496;2023-03-13T01:56:28;99719.72;;;7.72;100.00
20043;BME280;10182;52.896;6.496;2023-03-13T02:01:36;99694.91;;;7.76;100.00
20043;BME280;10182;52.896;6.496;2023-03-13T02:06:42;99667.50;;;7.79;100.00
20043;BME280;10182;52.896;6.496;2023-03-13T02:11:48;99643.63;;;7.82;100.00
20043;BME280;10182;52.896;6.496;2023-03-13T02:16:54;99622.53;;;7.82;100.00
20043;BME280;10182;52.896;6.496;2023-03-13T02:22:07;99602.69;;;7.75;100.00
20043;BME280;10182;52.896;6.496;2023-03-13T02:27:17;99590.69;;;7.69;100.00
20043;BME280;10182;52.896;6.496;2023-03-13T02:32:20;99596.75;;;7.71;100.00
20043;BME280;10182;52.896;6.496;2023-03-13T02:37:33;99574.72;;;7.72;100.00
20043;BME280;10182;52.896;6.496;2023-03-13T02:42:38;99564.69;;;7.79;100.00
20043;BME280;10182;52.896;6.496;2023-03-13T02:47:43;99543.16;;;7.71;100.00
20043;BME280;10182;52.896;6.496;2023-03-13T02:52:50;99526.25;;;7.75;100.00
20043;BME280;10182;52.896;6.496;2023-03-13T02:57:59;99515.38;;;7.81;100.00
20043;BME280;10182;52.896;6.496;2023-03-13T03:03:01;99500.81;;;7.90;100.00
20043;BME280;10182;52.896;6.496;2023-03-13T03:08:05;99491.06;;;7.92;100.00
20043;BME280;10182;52.896;6.496;2023-03-13T03:13:08;99481.25;;;7.94;100.00
20043;BME280;10182;52.896;6.496;2023-03-13T03:18:10;99462.47;;;8.00;100.00
20043;BME280;10182;52.896;6.496;2023-03-13T03:23:12;99449.88;;;8.05;100.00
20043;BME280;10182;52.896;6.496;2023-03-13T03:28:18;99441.28;;;8.18;100.00
20043;BME280;10182;52.896;6.496;2023-03-13T03:33:20;99440.16;;;8.22;100.00
20043;BME280;10182;52.896;6.496;2023-03-13T03:38:24;99427.56;;;8.27;100.00
20043;BME280;10182;52.896;6.496;2023-03-13T03:43:28;99417.56;;;8.32;100.00
20043;BME280;10182;52.896;6.496;2023-03-13T03:48:31;99420.69;;;8.39;100.00
20043;BME280;10182;52.896;6.496;2023-03-13T03:53:33;99406.16;;;8.48;100.00
20043;BME280;10182;52.896;6.496;2023-03-13T03:58:36;99406.63;;;8.54;100.00
20043;BME280;10182;52.896;6.496;2023-03-13T04:03:38;99396.53;;;8.61;100.00
20043;BME280;10182;52.896;6.496;2023-03-13T04:08:40;99397.72;;;8.71;100.00
20043;BME280;10182;52.896;6.496;2023-03-13T04:13:43;99387.53;;;8.79;100.00
20043;BME280;10182;52.896;6.496;2023-03-13T04:18:48;99375.75;;;8.85;100.00
20043;BME280;10182;52.896;6.496;2023-03-13T04:23:52;99373.94;;;9.00;100.00
20043;BME280;10182;52.896;6.496;2023-03-13T04:28:55;99360.66;;;9.16;100.00
20043;BME280;10182;52.896;6.496;2023-03-13T04:34:00;99355.63;;;9.26;100.00
20043;BME280;10182;52.896;6.496;2023-03-13T04:39:02;99367.13;;;9.39;100.00
20043;BME280;10182;52.896;6.496;2023-03-13T04:44:06;99348.31;;;9.44;100.00
20043;BME280;10182;52.896;6.496;2023-03-13T04:49:10;99340.00;;;9.50;100.00
20043;BME280;10182;52.896;6.496;2023-03-13T04:54:13;99330.72;;;9.57;100.00
20043;BME280;10182;52.896;6.496;2023-03-13T04:59:16;99324.19;;;9.63;100.00
20043;BME280;10182;52.896;6.496;2023-03-13T05:04:22;99329.09;;;9.69;100.00
20043;BME280;10182;52.896;6.496;2023-03-13T05:09:29;99330.47;;;9.75;100.00
20043;BME280;10182;52.896;6.496;2023-03-13T05:14:32;99308.19;;;9.79;100.00
20043;BME280;10182;52.896;6.496;2023-03-13T05:19:34;99325.97;;;9.90;100.00
20043;BME280;10182;52.896;6.496;2023-03-13T05:24:36;99304.59;;;9.93;100.00
20043;BME280;10182;52.896;6.496;2023-03-13T05:29:39;99299.53;;;10.03;100.00
20043;BME280;10182;52.896;6.496;2023-03-13T05:34:40;99298.59;;;10.04;100.00
20043;BME280;10182;52.896;6.496;2023-03-13T05:39:42;99292.38;;;10.05;100.00
20043;BME280;10182;52.896;6.496;2023-03-13T05:44:49;99290.66;;;10.04;100.00
20043;BME280;10182;52.896;6.496;2023-03-13T05:49:51;99281.34;;;10.11;100.00
20043;BME280;10182;52.896;6.496;2023-03-13T05:54:54;99283.69;;;10.15;100.00
20043;BME280;10182;52.896;6.496;2023-03-13T05:59:57;99283.50;;;10.19;100.00
20043;BME280;10182;52.896;6.496;2023-03-13T06:05:00;99270.56;;;10.27;100.00
20043;BME280;10182;52.896;6.496;2023-03-13T06:10:02;99283.28;;;10.35;100.00
20043;BME280;10182;52.896;6.496;2023-03-13T06:15:07;99272.19;;;10.42;100.00
20043;BME280;10182;52.896;6.496;2023-03-13T06:20:11;99266.56;;;10.47;100.00
20043;BME280;10182;52.896;6.496;2023-03-13T06:25:13;99275.16;;;10.50;100.00
20043;BME280;10182;52.896;6.496;2023-03-13T06:30:18;99279.28;;;10.55;100.00
20043;BME280;10182;52.896;6.496;2023-03-13T06:35:26;99270.59;;;10.53;100.00
20043;BME280;10182;52.896;6.496;2023-03-13T06:40:28;99264.03;;;10.58;100.00
20043;BME280;10182;52.896;6.496;2023-03-13T06:45:34;99253.00;;;10.64;100.00
20043;BME280;10182;52.896;6.496;2023-03-13T06:50:37;99249.94;;;10.71;100.00
20043;BME280;10182;52.896;6.496;2023-03-13T06:55:39;99226.16;;;10.82;100.00
20043;BME280;10182;52.896;6.496;2023-03-13T07:00:43;99229.75;;;10.81;100.00
20043;BME280;10182;52.896;6.496;2023-03-13T07:05:46;99189.50;;;10.89;100.00
20043;BME280;10182;52.896;6.496;2023-03-13T07:10:49;99229.34;;;10.87;100.00
20043;BME280;10182;52.896;6.496;2023-03-13T07:15:53;99238.22;;;10.86;100.00
20043;BME280;10182;52.896;6.496;2023-03-13T07:20:56;99233.78;;;10.87;100.00
20043;BME280;10182;52.896;6.496;2023-03-13T07:26:00;99224.25;;;10.84;100.00
20043;BME280;10182;52.896;6.496;2023-03-13T07:31:05;99241.19;;;10.94;100.00
20043;BME280;10182;52.896;6.496;2023-03-13T07:36:09;99234.59;;;11.00;100.00
20043;BME280;10182;52.896;6.496;2023-03-13T07:41:12;99235.34;;;11.02;100.00
20043;BME280;10182;52.896;6.496;2023-03-13T07:46:21;99240.88;;;10.99;100.00
20043;BME280;10182;52.896;6.496;2023-03-13T07:51:25;99234.28;;;10.92;100.00
20043;BME280;10182;52.896;6.496;2023-03-13T07:56:27;99222.63;;;10.94;100.00
20043;BME280;10182;52.896;6.496;2023-03-13T08:01:34;99266.94;;;10.92;100.00
20043;BME280;10182;52.896;6.496;2023-03-13T08:06:36;99268.19;;;10.87;100.00
20043;BME280;10182;52.896;6.496;2023-03-13T08:11:45;99282.22;;;10.76;100.00
20043;BME280;10182;52.896;6.496;2023-03-13T08:16:51;99300.53;;;10.66;100.00
20043;BME280;10182;52.896;6.496;2023-03-13T08:21:58;99294.63;;;10.62;100.00
20043;BME280;10182;52.896;6.496;2023-03-13T08:27:00;99291.88;;;10.64;100.00
20043;BME280;10182;52.896;6.496;2023-03-13T08:32:05;99294.09;;;10.70;100.00
20043;BME280;10182;52.896;6.496;2023-03-13T08:37:07;99285.84;;;10.75;100.00
20043;BME280;10182;52.896;6.496;2023-03-13T08:42:18;99270.06;;;10.73;100.00
20043;BME280;10182;52.896;6.496;2023-03-13T08:47:24;99288.47;;;10.75;100.00
20043;BME280;10182;52.896;6.496;2023-03-13T08:52:34;99293.22;;;10.82;100.00
20043;BME280;10182;52.896;6.496;2023-03-13T08:57:42;99267.53;;;11.09;100.00
20043;BME280;10182;52.896;6.496;2023-03-13T09:02:58;99256.16;;;11.20;100.00
20043;BME280;10182;52.896;6.496;2023-03-13T09:08:12;99251.75;;;11.31;100.00
20043;BME280;10182;52.896;6.496;2023-03-13T09:13:17;99232.00;;;11.35;100.00
20043;BME280;10182;52.896;6.496;2023-03-13T09:18:21;99228.13;;;11.28;100.00
20043;BME280;10182;52.896;6.496;2023-03-13T09:23:26;99235.25;;;11.28;100.00
20043;BME280;10182;52.896;6.496;2023-03-13T09:28:30;99222.19;;;11.25;100.00
20043;BME280;10182;52.896;6.496;2023-03-13T09:33:33;99227.84;;;11.20;100.00
20043;BME280;10182;52.896;6.496;2023-03-13T09:38:36;99232.19;;;11.21;100.00
20043;BME280;10182;52.896;6.496;2023-03-13T09:43:41;99243.06;;;11.29;100.00
20043;BME280;10182;52.896;6.496;2023-03-13T09:49:04;99236.59;;;11.33;100.00
20043;BME280;10182;52.896;6.496;2023-03-13T09:54:24;99229.63;;;11.44;100.00
20043;BME280;10182;52.896;6.496;2023-03-13T09:59:29;99215.94;;;11.50;100.00
20043;BME280;10182;52.896;6.496;2023-03-13T10:04:46;99197.22;;;11.76;100.00
20043;BME280;10182;52.896;6.496;2023-03-13T10:09:58;99179.03;;;11.94;100.00
20043;BME280;10182;52.896;6.496;2023-03-13T10:20:58;99164.59;;;11.98;100.00
20043;BME280;10182;52.896;6.496;2023-03-13T10:26:01;99143.97;;;12.13;100.00
20043;BME280;10182;52.896;6.496;2023-03-13T10:31:08;99144.09;;;12.23;100.00
20043;BME280;10182;52.896;6.496;2023-03-13T10:36:21;99136.97;;;12.34;100.00
20043;BME280;10182;52.896;6.496;2023-03-13T10:41:28;99134.31;;;12.46;100.00
20043;BME280;10182;52.896;6.496;2023-03-13T10:46:46;99109.81;;;12.53;100.00
20043;BME280;10182;52.896;6.496;2023-03-13T10:52:01;99108.81;;;12.66;100.00
20043;BME280;10182;52.896;6.496;2023-03-13T10:57:36;99099.50;;;12.72;100.00
20043;BME280;10182;52.896;6.496;2023-03-13T11:02:43;99086.50;;;12.90;100.00
20043;BME280;10182;52.896;6.496;2023-03-13T11:07:50;99100.84;;;12.98;100.00
20043;BME280;10182;52.896;6.496;2023-03-13T11:12:56;99093.88;;;13.18;100.00
20043;BME280;10182;52.896;6.496;2023-03-13T11:18:12;99111.38;;;13.21;100.00
20043;BME280;10182;52.896;6.496;2023-03-13T11:23:39;99103.13;;;13.24;100.00
20043;BME280;10182;52.896;6.496;2023-03-13T11:28:59;99096.69;;;13.38;100.00
20043;BME280;10182;52.896;6.496;2023-03-13T11:34:13;99076.72;;;13.44;100.00
20043;BME280;10182;52.896;6.496;2023-03-13T11:39:38;99052.56;;;13.57;100.00
20043;BME280;10182;52.896;6.496;2023-03-13T11:45:10;99056.84;;;13.69;100.00
20043;BME280;10182;52.896;6.496;2023-03-13T11:50:38;99075.00;;;13.64;100.00
20043;BME280;10182;52.896;6.496;2023-03-13T11:56:02;99061.00;;;13.62;100.00
20043;BME280;10182;52.896;6.496;2023-03-13T12:01:12;99065.72;;;13.79;100.00
20043;BME280;10182;52.896;6.496;2023-03-13T12:06:24;99056.66;;;13.92;100.00
20043;BME280;10182;52.896;6.496;2023-03-13T12:12:00;99051.50;;;13.90;100.00
20043;BME280;10182;52.896;6.496;2023-03-13T12:17:14;99057.75;;;13.79;100.00
20043;BME280;10182;52.896;6.496;2023-03-13T12:22:38;99053.66;;;13.75;100.00
20043;BME280;10182;52.896;6.496;2023-03-13T12:27:48;99029.19;;;13.91;100.00
20043;BME280;10182;52.896;6.496;2023-03-13T12:33:00;99022.28;;;14.19;100.00
20043;BME280;10182;52.896;6.496;2023-03-13T12:38:12;99019.53;;;14.60;100.00
20043;BME280;10182;52.896;6.496;2023-03-13T12:43:30;99033.31;;;14.85;100.00
20043;BME280;10182;52.896;6.496;2023-03-13T12:54:28;99041.16;;;13.66;100.00
20043;BME280;10182;52.896;6.496;2023-03-13T12:59:55;99015.00;;;13.71;100.00
20043;BME280;10182;52.896;6.496;2023-03-13T13:05:58;99020.06;;;13.84;100.00
20043;BME280;10182;52.896;6.496;2023-03-13T13:11:45;99004.91;;;13.75;100.00
20043;BME280;10182;52.896;6.496;2023-03-13T13:17:14;98997.31;;;13.60;100.00
20043;BME280;10182;52.896;6.496;2023-03-13T13:22:48;98982.13;;;13.51;100.00
20043;BME280;10182;52.896;6.496;2023-03-13T13:27:54;98982.84;;;13.32;100.00
20043;BME280;10182;52.896;6.496;2023-03-13T13:33:37;98980.16;;;13.53;100.00
20043;BME280;10182;52.896;6.496;2023-03-13T13:38:40;98964.69;;;13.68;100.00
20043;BME280;10182;52.896;6.496;2023-03-13T13:43:43;98951.22;;;13.60;100.00
20043;BME280;10182;52.896;6.496;2023-03-13T13:49:05;98950.72;;;13.76;100.00
20043;BME280;10182;52.896;6.496;2023-03-13T13:54:29;98948.34;;;13.73;100.00
20043;BME280;10182;52.896;6.496;2023-03-13T13:59:35;98956.19;;;13.74;100.00
20043;BME280;10182;52.896;6.496;2023-03-13T14:04:45;98956.28;;;13.63;100.00
20043;BME280;10182;52.896;6.496;2023-03-13T14:09:57;98966.75;;;13.54;100.00
20043;BME280;10182;52.896;6.496;2023-03-13T14:15:15;98961.34;;;13.66;100.00
20043;BME280;10182;52.896;6.496;2023-03-13T14:20:35;98960.47;;;13.65;100.00
20043;BME280;10182;52.896;6.496;2023-03-13T14:25:43;98956.72;;;13.68;100.00
20043;BME280;10182;52.896;6.496;2023-03-13T14:30:47;98956.00;;;13.66;100.00
20043;BME280;10182;52.896;6.496;2023-03-13T14:35:51;98956.84;;;13.66;100.00
20043;BME280;10182;52.896;6.496;2023-03-13T14:40:53;98960.09;;;13.70;100.00
20043;BME280;10182;52.896;6.496;2023-03-13T14:45:56;98947.91;;;13.67;100.00
20043;BME280;10182;52.896;6.496;2023-03-13T14:51:07;98962.44;;;13.63;100.00
20043;BME280;10182;52.896;6.496;2023-03-13T14:56:13;98972.94;;;13.65;100.00
20043;BME280;10182;52.896;6.496;2023-03-13T15:01:24;98941.31;;;13.62;100.00
20043;BME280;10182;52.896;6.496;2023-03-13T15:06:28;98952.38;;;13.67;100.00
20043;BME280;10182;52.896;6.496;2023-03-13T15:11:33;98946.75;;;13.60;100.00
20043;BME280;10182;52.896;6.496;2023-03-13T15:16:36;98949.94;;;13.54;100.00
20043;BME280;10182;52.896;6.496;2023-03-13T15:21:40;98927.88;;;13.63;100.00
20043;BME280;10182;52.896;6.496;2023-03-13T15:26:42;98943.09;;;13.61;100.00
20043;BME280;10182;52.896;6.496;2023-03-13T15:31:44;98927.38;;;13.48;100.00
20043;BME280;10182;52.896;6.496;2023-03-13T15:36:51;98919.94;;;13.42;100.00
20043;BME280;10182;52.896;6.496;2023-03-13T15:41:52;98909.09;;;13.34;100.00
20043;BME280;10182;52.896;6.496;2023-03-13T15:46:54;98916.84;;;13.16;100.00
20043;BME280;10182;52.896;6.496;2023-03-13T15:52:00;98919.66;;;13.14;100.00
20043;BME280;10182;52.896;6.496;2023-03-13T15:57:02;98902.28;;;13.10;100.00
20043;BME280;10182;52.896;6.496;2023-03-13T16:02:12;98908.69;;;13.08;100.00
20043;BME280;10182;52.896;6.496;2023-03-13T16:07:17;98906.00;;;12.98;100.00
20043;BME280;10182;52.896;6.496;2023-03-13T16:12:20;98914.44;;;12.82;100.00
20043;BME280;10182;52.896;6.496;2023-03-13T16:17:22;98917.03;;;12.72;100.00
20043;BME280;10182;52.896;6.496;2023-03-13T16:22:28;98906.94;;;12.66;100.00
20043;BME280;10182;52.896;6.496;2023-03-13T16:27:36;98913.50;;;12.50;100.00
20043;BME280;10182;52.896;6.496;2023-03-13T16:32:39;98888.59;;;12.42;100.00
20043;BME280;10182;52.896;6.496;2023-03-13T16:37:43;98900.94;;;12.31;100.00
20043;BME280;10182;52.896;6.496;2023-03-13T16:42:45;98893.63;;;12.24;100.00
20043;BME280;10182;52.896;6.496;2023-03-13T16:47:47;98889.31;;;12.11;100.00
20043;BME280;10182;52.896;6.496;2023-03-13T16:52:51;98885.38;;;11.94;100.00
20043;BME280;10182;52.896;6.496;2023-03-13T16:57:54;98882.16;;;11.79;100.00
20043;BME280;10182;52.896;6.496;2023-03-13T17:02:56;98884.34;;;11.63;100.00
20043;BME280;10182;52.896;6.496;2023-03-13T17:08:02;98877.50;;;11.49;100.00
20043;BME280;10182;52.896;6.496;2023-03-13T17:13:08;98868.41;;;11.30;100.00
20043;BME280;10182;52.896;6.496;2023-03-13T17:18:12;98868.88;;;11.24;100.00
20043;BME280;10182;52.896;6.496;2023-03-13T17:23:15;98866.81;;;11.16;100.00
20043;BME280;10182;52.896;6.496;2023-03-13T17:28:17;98862.72;;;11.12;100.00
20043;BME280;10182;52.896;6.496;2023-03-13T17:33:19;98853.19;;;11.10;100.00
20043;BME280;10182;52.896;6.496;2023-03-13T17:38:22;98866.44;;;11.10;100.00
20043;BME280;10182;52.896;6.496;2023-03-13T17:43:27;98852.38;;;11.09;100.00
20043;BME280;10182;52.896;6.496;2023-03-13T17:48:32;98845.63;;;11.16;100.00
20043;BME280;10182;52.896;6.496;2023-03-13T17:53:35;98858.16;;;11.03;100.00
20043;BME280;10182;52.896;6.496;2023-03-13T17:58:37;98878.25;;;10.94;100.00
20043;BME280;10182;52.896;6.496;2023-03-13T18:03:41;98871.00;;;10.85;100.00
20043;BME280;10182;52.896;6.496;2023-03-13T18:08:45;98878.59;;;10.78;100.00
20043;BME280;10182;52.896;6.496;2023-03-13T18:13:48;98884.13;;;10.75;100.00
20043;BME280;10182;52.896;6.496;2023-03-13T18:18:50;98887.72;;;10.63;100.00
20043;BME280;10182;52.896;6.496;2023-03-13T18:23:54;98886.03;;;10.62;100.00
20043;BME280;10182;52.896;6.496;2023-03-13T18:29:02;98889.41;;;10.64;100.00
20043;BME280;10182;52.896;6.496;2023-03-13T18:34:04;98882.91;;;10.57;100.00
20043;BME280;10182;52.896;6.496;2023-03-13T18:39:12;98877.09;;;10.52;100.00
20043;BME280;10182;52.896;6.496;2023-03-13T18:44:22;98862.16;;;10.39;100.00
20043;BME280;10182;52.896;6.496;2023-03-13T18:49:27;98859.47;;;10.28;100.00
20043;BME280;10182;52.896;6.496;2023-03-13T18:54:31;98844.16;;;10.20;100.00
20043;BME280;10182;52.896;6.496;2023-03-13T18:59:33;98844.72;;;10.12;100.00
20043;BME280;10182;52.896;6.496;2023-03-13T19:04:41;98840.28;;;10.13;100.00
20043;BME280;10182;52.896;6.496;2023-03-13T19:09:48;98829.78;;;10.11;100.00
20043;BME280;10182;52.896;6.496;2023-03-13T19:14:50;98827.53;;;10.18;100.00
20043;BME280;10182;52.896;6.496;2023-03-13T19:19:51;98811.88;;;10.04;100.00
20043;BME280;10182;52.896;6.496;2023-03-13T19:24:58;98803.31;;;10.00;100.00
20043;BME280;10182;52.896;6.496;2023-03-13T19:30:00;98794.03;;;9.94;100.00
20043;BME280;10182;52.896;6.496;2023-03-13T19:35:02;98783.91;;;9.88;100.00
20043;BME280;10182;52.896;6.496;2023-03-13T19:40:15;98791.69;;;9.78;100.00
20043;BME280;10182;52.896;6.496;2023-03-13T19:45:17;98790.69;;;9.68;100.00
20043;BME280;10182;52.896;6.496;2023-03-13T19:50:23;98797.94;;;9.53;100.00
20043;BME280;10182;52.896;6.496;2023-03-13T19:55:28;98795.13;;;9.43;100.00
20043;BME280;10182;52.896;6.496;2023-03-13T20:00:32;98793.69;;;9.39;100.00
20043;BME280;10182;52.896;6.496;2023-03-13T20:05:34;98786.63;;;9.27;100.00
20043;BME280;10182;52.896;6.496;2023-03-13T20:10:37;98783.91;;;9.15;100.00
20043;BME280;10182;52.896;6.496;2023-03-13T20:15:39;98778.97;;;9.11;100.00
20043;BME280;10182;52.896;6.496;2023-03-13T20:20:42;98775.69;;;9.07;100.00
20043;BME280;10182;52.896;6.496;2023-03-13T20:25:50;98769.28;;;8.98;100.00
20043;BME280;10182;52.896;6.496;2023-03-13T20:30:56;98765.28;;;8.93;100.00
20043;BME280;10182;52.896;6.496;2023-03-13T20:36:01;98764.41;;;8.92;100.00
20043;BME280;10182;52.896;6.496;2023-03-13T20:41:10;98766.13;;;8.93;100.00
20043;BME280;10182;52.896;6.496;2023-03-13T20:46:12;98762.41;;;8.96;100.00
20043;BME280;10182;52.896;6.496;2023-03-13T20:51:16;98765.25;;;9.06;100.00
20043;BME280;10182;52.896;6.496;2023-03-13T20:56:21;98766.72;;;9.10;100.00
20043;BME280;10182;52.896;6.496;2023-03-13T21:01:23;98756.03;;;9.11;100.00
20043;BME280;10182;52.896;6.496;2023-03-13T21:06:26;98751.19;;;9.05;100.00
20043;BME280;10182;52.896;6.496;2023-03-13T21:11:31;98751.09;;;9.07;100.00
20043;BME280;10182;52.896;6.496;2023-03-13T21:16:36;98743.16;;;9.07;100.00
20043;BME280;10182;52.896;6.496;2023-03-13T21:21:39;98733.44;;;9.07;100.00
20043;BME280;10182;52.896;6.496;2023-03-13T21:26:42;98718.75;;;9.03;100.00
20043;BME280;10182;52.896;6.496;2023-03-13T21:31:44;98708.47;;;9.11;100.00
20043;BME280;10182;52.896;6.496;2023-03-13T21:36:46;98707.91;;;8.95;100.00
20043;BME280;10182;52.896;6.496;2023-03-13T21:41:49;98708.97;;;8.92;100.00
20043;BME280;10182;52.896;6.496;2023-03-13T21:46:54;98710.38;;;8.85;100.00
20043;BME280;10182;52.896;6.496;2023-03-13T21:51:56;98708.91;;;8.81;100.00
20043;BME280;10182;52.896;6.496;2023-03-13T21:57:00;98724.88;;;8.79;100.00
20043;BME280;10182;52.896;6.496;2023-03-13T22:02:09;98730.38;;;8.76;100.00
20043;BME280;10182;52.896;6.496;2023-03-13T22:07:11;98722.75;;;8.72;100.00
20043;BME280;10182;52.896;6.496;2023-03-13T22:12:14;98713.38;;;8.68;100.00
20043;BME280;10182;52.896;6.496;2023-03-13T22:17:18;98704.41;;;8.70;100.00
20043;BME280;10182;52.896;6.496;2023-03-13T22:22:21;98690.47;;;8.68;100.00
20043;BME280;10182;52.896;6.496;2023-03-13T22:27:25;98682.97;;;8.75;100.00
20043;BME280;10182;52.896;6.496;2023-03-13T22:32:26;98672.59;;;8.72;100.00
20043;BME280;10182;52.896;6.496;2023-03-13T22:37:30;98672.41;;;8.75;100.00
20043;BME280;10182;52.896;6.496;2023-03-13T22:42:33;98666.84;;;8.67;100.00
20043;BME280;10182;52.896;6.496;2023-03-13T22:47:35;98648.75;;;8.73;100.00
20043;BME280;10182;52.896;6.496;2023-03-13T22:52:37;98638.69;;;8.78;100.00
20043;BME280;10182;52.896;6.496;2023-03-13T22:57:41;98636.81;;;8.80;100.00
20043;BME280;10182;52.896;6.496;2023-03-13T23:02:43;98623.25;;;8.85;100.00
20043;BME280;10182;52.896;6.496;2023-03-13T23:07:45;98621.34;;;8.87;100.00
20043;BME280;10182;52.896;6.496;2023-03-13T23:12:53;98607.66;;;8.82;100.00
20043;BME280;10182;52.896;6.496;2023-03-13T23:17:59;98616.28;;;8.84;100.00
20043;BME280;10182;52.896;6.496;2023-03-13T23:23:01;98609.34;;;8.83;100.00
20043;BME280;10182;52.896;6.496;2023-03-13T23:28:10;98608.47;;;8.83;100.00
20043;BME280;10182;52.896;6.496;2023-03-13T23:33:13;98600.31;;;8.86;100.00
20043;BME280;10182;52.896;6.496;2023-03-13T23:38:15;98605.44;;;9.00;100.00
20043;BME280;10182;52.896;6.496;2023-03-13T23:43:21;98594.53;;;9.05;100.00
20043;BME280;10182;52.896;6.496;2023-03-13T23:48:23;98604.03;;;9.07;100.00
20043;BME280;10182;52.896;6.496;2023-03-13T23:53:25;98608.75;;;9.15;100.00
20043;BME280;10182;52.896;6.496;2023-03-13T23:58:30;98606.59;;;9.20;100.00
